Time;durP1;ratioP1;P1;durP2;ratioP2;P2;SDS_P1;SDS_P2;PMS_P1;PMS_P2;Temp;Humidity;BMP_temperature;BMP_pressure;BME280_temperature;BME280_humidity;BME280_pressure;Samples;Min_cycle;Max_cycle;Signal;HPM_P1;HPM_P2
2022/05/01 00:01:40;;;;;;;16.70;5.93;;;11.10;77.30;;;;;;5108330;28;20035;-72
2022/05/01 00:04:07;;;;;;;11.82;6.88;;;11.10;77.40;;;;;;5114135;28;20032;-71
2022/05/01 00:06:33;;;;;;;13.05;6.57;;;11.10;77.50;;;;;;5114275;28;20031;-71
2022/05/01 00:09:02;;;;;;;10.32;5.75;;;11.00;77.50;;;;;;5114611;28;20028;-71
2022/05/01 00:11:30;;;;;;;10.40;6.15;;;11.00;77.60;;;;;;5113872;28;20035;-71
2022/05/01 00:13:57;;;;;;;8.18;5.85;;;11.00;77.70;;;;;;5114602;28;20031;-71
2022/05/01 00:16:23;;;;;;;13.30;6.05;;;10.90;77.80;;;;;;5107236;28;20467;-71
2022/05/01 00:18:49;;;;;;;7.57;5.28;;;10.90;77.90;;;;;;5113616;28;20036;-72
2022/05/01 00:21:14;;;;;;;9.77;6.43;;;10.80;77.80;;;;;;5113835;28;20070;-71
2022/05/01 00:23:40;;;;;;;10.73;6.10;;;10.80;77.90;;;;;;5114186;28;20071;-71
2022/05/01 00:26:07;;;;;;;9.90;6.00;;;10.80;78.00;;;;;;5113527;28;20027;-71
2022/05/01 00:28:35;;;;;;;10.77;5.53;;;10.70;78.00;;;;;;5113776;28;20058;-71
2022/05/01 00:31:01;;;;;;;9.00;5.30;;;10.60;78.00;;;;;;5113889;28;20020;-71
2022/05/01 00:36:26;;;;;;;11.57;5.50;;;10.60;78.30;;;;;;5113911;28;20034;-71
2022/05/01 00:38:56;;;;;;;10.85;5.15;;;10.50;78.60;;;;;;5113227;28;20053;-71
2022/05/01 00:41:23;;;;;;;18.02;6.25;;;10.50;78.70;;;;;;5113857;28;20050;-70
2022/05/01 00:44:04;;;;;;;8.05;5.28;;;10.40;78.80;;;;;;5113774;28;20501;-71
2022/05/01 00:46:31;;;;;;;9.20;5.13;;;10.40;78.90;;;;;;5113085;28;20024;-71
2022/05/01 00:49:00;;;;;;;10.73;5.47;;;10.30;78.90;;;;;;5111800;28;20070;-71
2022/05/01 00:51:29;;;;;;;10.05;5.45;;;10.30;79.10;;;;;;5106715;28;20023;-71
2022/05/01 00:53:55;;;;;;;9.32;6.30;;;10.30;79.20;;;;;;5099558;28;20129;-71
2022/05/01 00:56:21;;;;;;;15.93;6.03;;;10.20;79.20;;;;;;5102890;28;20387;-71
2022/05/01 00:58:48;;;;;;;10.38;6.07;;;10.30;79.30;;;;;;5093090;28;20051;-71
2022/05/01 01:01:15;;;;;;;10.93;6.32;;;10.20;79.30;;;;;;5103264;28;20120;-71
2022/05/01 01:03:42;;;;;;;11.13;6.40;;;10.20;79.20;;;;;;5098530;28;20507;-71
2022/05/01 01:06:07;;;;;;;13.10;6.78;;;10.30;79.30;;;;;;5113320;28;20035;-71
2022/05/01 01:08:33;;;;;;;10.20;6.47;;;10.30;79.40;;;;;;5111759;27;20441;-71
2022/05/01 01:10:59;;;;;;;9.50;6.18;;;10.30;79.30;;;;;;5113169;28;20106;-71
2022/05/01 01:13:29;;;;;;;10.88;6.53;;;10.20;79.00;;;;;;5113119;28;20080;-71
2022/05/01 01:15:56;;;;;;;11.55;6.32;;;10.20;79.20;;;;;;5100165;28;20103;-71
2022/05/01 01:18:23;;;;;;;10.82;5.85;;;10.20;79.20;;;;;;5112563;28;20032;-71
2022/05/01 01:20:52;;;;;;;8.55;5.20;;;10.10;79.30;;;;;;5112724;28;20376;-71
2022/05/01 01:23:19;;;;;;;8.52;5.20;;;10.00;79.30;;;;;;5112731;28;20047;-71
2022/05/01 01:25:47;;;;;;;8.10;5.32;;;10.00;79.40;;;;;;5112795;28;20081;-71
2022/05/01 01:28:14;;;;;;;11.95;5.78;;;9.90;79.30;;;;;;5104070;28;20482;-71
2022/05/01 01:33:28;;;;;;;8.05;5.13;;;9.90;79.20;;;;;;5112931;28;20086;-71
2022/05/01 01:35:55;;;;;;;10.75;5.57;;;9.90;78.90;;;;;;5106626;28;20036;-71
2022/05/01 01:38:21;;;;;;;11.10;6.65;;;9.90;78.80;;;;;;5104752;28;20132;-71
2022/05/01 01:40:50;;;;;;;9.23;5.50;;;9.90;78.80;;;;;;5112480;28;20039;-71
2022/05/01 01:43:22;;;;;;;9.27;5.97;;;9.90;78.60;;;;;;5112045;28;20051;-71
2022/05/01 01:45:48;;;;;;;11.82;6.10;;;9.90;78.60;;;;;;5099651;28;20534;-71
2022/05/01 01:48:19;;;;;;;8.43;5.80;;;9.90;78.50;;;;;;5112515;28;20036;-71
2022/05/01 01:50:58;;;;;;;11.45;6.47;;;9.90;78.80;;;;;;5098337;28;20031;-71
2022/05/01 01:53:24;;;;;;;8.05;5.70;;;9.80;78.90;;;;;;5112248;28;20644;-71
2022/05/01 01:55:49;;;;;;;9.48;5.72;;;9.80;78.90;;;;;;5098652;28;20059;-71
2022/05/01 01:58:15;;;;;;;11.35;5.35;;;9.90;79.00;;;;;;5111537;28;20055;-70
2022/05/01 02:00:41;;;;;;;13.65;6.30;;;9.80;78.90;;;;;;5098961;28;20046;-71
2022/05/01 02:03:10;;;;;;;9.57;5.38;;;9.80;79.00;;;;;;5109517;28;20100;-71
2022/05/01 02:05:46;;;;;;;9.40;5.82;;;9.60;78.90;;;;;;5104906;28;20020;-71
2022/05/01 02:08:13;;;;;;;11.52;5.88;;;9.60;79.10;;;;;;5109423;28;20037;-71
2022/05/01 02:10:46;;;;;;;7.75;5.43;;;9.50;79.20;;;;;;5111556;28;20181;-71
2022/05/01 02:13:12;;;;;;;7.93;4.90;;;9.50;79.60;;;;;;5106266;28;20066;-71
2022/05/01 02:15:38;;;;;;;9.55;5.65;;;9.40;79.60;;;;;;5107014;28;20072;-71
2022/05/01 02:18:05;;;;;;;21.30;5.22;;;9.40;79.70;;;;;;5102687;28;20020;-71
2022/05/01 02:21:34;;;;;;;79.57;5.85;;;9.40;79.90;;;;;;5106999;28;20055;-71
2022/05/01 02:23:22;;;;;;;94.75;6.55;;;9.30;80.00;;;;;;5098130;28;20368;-70
2022/05/01 02:25:48;;;;;;;91.85;5.78;;;9.30;80.10;;;;;;5100266;28;20090;-71
2022/05/01 02:28:14;;;;;;;49.25;5.28;;;9.30;80.20;;;;;;5107848;28;20394;-71
2022/05/01 02:30:40;;;;;;;10.38;5.93;;;9.30;80.40;;;;;;5110785;28;20031;-71
2022/05/01 02:33:07;;;;;;;11.77;6.68;;;9.30;80.40;;;;;;5109358;28;20065;-71
2022/05/01 02:35:36;;;;;;;11.70;6.22;;;9.30;80.40;;;;;;5099039;28;20023;-71
2022/05/01 02:38:03;;;;;;;17.27;5.28;;;9.30;80.40;;;;;;5111240;28;20383;-71
2022/05/01 02:40:30;;;;;;;14.10;5.18;;;9.30;80.40;;;;;;5111408;28;20150;-72
2022/05/01 02:42:58;;;;;;;3.92;3.20;;;9.30;80.30;;;;;;5109858;28;20093;-71
2022/05/01 02:45:30;;;;;;;77.20;4.53;;;9.30;81.00;;;;;;5098897;28;20035;-71
2022/05/01 02:47:56;;;;;;;5.78;3.50;;;9.30;80.50;;;;;;5099131;28;20419;-71
2022/05/01 02:50:22;;;;;;;6.15;3.95;;;9.30;80.40;;;;;;5111747;28;20067;-71
2022/05/01 02:52:51;;;;;;;7.20;4.00;;;9.30;80.40;;;;;;5102196;28;20035;-71
2022/05/01 02:55:17;;;;;;;18.50;4.72;;;9.20;80.30;;;;;;5107661;28;20032;-71
2022/05/01 02:57:43;;;;;;;80.10;5.18;;;9.20;80.40;;;;;;5111700;28;20471;-71
2022/05/01 03:00:17;;;;;;;7.43;4.78;;;9.20;80.50;;;;;;5106831;28;20043;-71
2022/05/01 03:02:45;;;;;;;6.75;4.40;;;9.10;80.40;;;;;;5102976;28;20039;-71
2022/05/01 03:05:11;;;;;;;6.13;4.47;;;9.10;80.20;;;;;;5111256;28;20486;-71
2022/05/01 03:07:36;;;;;;;6.55;4.75;;;9.10;80.20;;;;;;5098655;28;20053;-71
2022/05/01 03:10:02;;;;;;;8.85;4.63;;;9.00;80.00;;;;;;5096612;28;20028;-71
2022/05/01 03:12:29;;;;;;;10.23;5.20;;;9.10;80.00;;;;;;5111460;28;20118;-71
2022/05/01 03:14:57;;;;;;;22.58;5.50;;;9.00;80.00;;;;;;5104315;28;20032;-70
2022/05/01 03:17:23;;;;;;;88.78;7.03;;;9.00;80.00;;;;;;5090774;28;20024;-71
2022/05/01 03:22:33;;;;;;;77.95;6.22;;;8.90;80.10;;;;;;5114489;28;20038;-71
2022/05/01 03:24:58;;;;;;;7.43;4.43;;;8.90;80.30;;;;;;5114993;28;20036;-71
2022/05/01 03:27:24;;;;;;;8.43;5.50;;;8.90;80.60;;;;;;5114966;28;20051;-70
2022/05/01 03:32:34;;;;;;;6.85;5.10;;;8.90;81.00;;;;;;5099044;28;20043;-71
2022/05/01 03:35:00;;;;;;;7.28;5.25;;;8.90;81.00;;;;;;5104095;28;20028;-71
2022/05/01 03:37:26;;;;;;;8.20;5.05;;;8.90;81.10;;;;;;5097816;28;20378;-71
2022/05/01 03:39:51;;;;;;;8.27;5.18;;;8.90;81.10;;;;;;5104744;28;20088;-71
2022/05/01 03:42:17;;;;;;;7.30;5.18;;;8.90;81.00;;;;;;5114288;28;20149;-71
2022/05/01 03:44:42;;;;;;;7.47;4.85;;;8.90;80.80;;;;;;5114917;28;20031;-71
2022/05/01 03:47:08;;;;;;;7.30;4.90;;;8.90;80.50;;;;;;5114634;28;20059;-71
2022/05/01 03:49:34;;;;;;;9.52;4.60;;;8.90;80.20;;;;;;5114818;28;20379;-71
2022/05/01 03:51:59;;;;;;;7.03;5.00;;;8.90;80.10;;;;;;5101045;28;20061;-71
2022/05/01 03:54:25;;;;;;;7.80;4.90;;;8.80;79.90;;;;;;5114808;28;20088;-71
2022/05/01 03:56:51;;;;;;;7.20;5.45;;;8.80;79.80;;;;;;5109860;28;20017;-71
2022/05/01 03:59:17;;;;;;;9.15;4.72;;;8.80;79.80;;;;;;5093964;28;20052;-71
2022/05/01 04:01:44;;;;;;;9.55;5.75;;;8.80;79.80;;;;;;5098730;28;20052;-71
2022/05/01 04:04:09;;;;;;;8.75;5.55;;;8.80;79.60;;;;;;5102363;28;20107;-71
2022/05/01 04:06:35;;;;;;;9.38;4.75;;;8.70;79.30;;;;;;5107480;28;20375;-71
2022/05/01 04:09:01;;;;;;;6.45;4.45;;;8.70;79.20;;;;;;5094005;28;20032;-71
2022/05/01 04:11:26;;;;;;;6.63;4.40;;;8.70;79.10;;;;;;5112111;28;20020;-71
2022/05/01 04:13:52;;;;;;;7.38;3.97;;;8.70;79.00;;;;;;5114191;28;20427;-71
2022/05/01 04:16:18;;;;;;;9.43;3.95;;;8.70;79.10;;;;;;5114223;28;20027;-71
2022/05/01 04:18:43;;;;;;;7.28;4.72;;;8.70;79.20;;;;;;5113709;28;20039;-71
2022/05/01 04:21:13;;;;;;;8.05;4.78;;;8.60;79.00;;;;;;5112310;28;20032;-71
2022/05/01 04:23:39;;;;;;;33.53;6.93;;;8.60;79.10;;;;;;5104889;28;20134;-71
2022/05/01 04:26:05;;;;;;;6.63;4.25;;;8.60;78.90;;;;;;5110946;28;20147;-71
2022/05/01 04:28:31;;;;;;;6.47;4.40;;;8.50;78.90;;;;;;5104893;28;20032;-71
2022/05/01 04:30:56;;;;;;;5.43;3.92;;;8.50;79.00;;;;;;5095494;28;20147;-71
2022/05/01 04:33:22;;;;;;;6.40;4.72;;;8.50;78.90;;;;;;5104410;28;20040;-71
2022/05/01 04:35:50;;;;;;;6.15;4.10;;;8.50;78.90;;;;;;5093448;28;20028;-71
2022/05/01 04:38:19;;;;;;;8.27;4.70;;;8.50;78.80;;;;;;5103264;28;20063;-70
2022/05/01 04:40:50;;;;;;;7.70;4.97;;;8.50;78.80;;;;;;5109980;28;20032;-70
2022/05/01 04:43:26;;;;;;;7.47;5.10;;;8.50;78.90;;;;;;5104575;28;20395;-70
2022/05/01 04:45:56;;;;;;;17.73;4.63;;;8.40;79.10;;;;;;5113017;28;20080;-71
2022/05/01 04:48:23;;;;;;;36.33;3.88;;;8.30;79.20;;;;;;5100052;28;20028;-71
2022/05/01 04:50:49;;;;;;;6.68;4.40;;;8.30;79.30;;;;;;5100211;28;20035;-71
2022/05/01 04:53:17;;;;;;;10.68;5.68;;;8.30;80.00;;;;;;5112127;28;20759;-70
2022/05/01 04:55:45;;;;;;;15.50;6.97;;;8.20;79.60;;;;;;5100983;28;20544;-70
2022/05/01 04:58:12;;;;;;;15.32;7.25;;;8.20;79.60;;;;;;5113130;28;20039;-71
2022/05/01 05:00:38;;;;;;;46.85;8.05;;;8.10;79.70;;;;;;5112586;28;20050;-70
2022/05/01 05:03:04;;;;;;;18.55;8.48;;;8.00;79.70;;;;;;5113108;28;20059;-70
2022/05/01 05:05:31;;;;;;;15.00;7.60;;;8.00;79.80;;;;;;5113279;27;20055;-71
2022/05/01 05:10:51;;;;;;;16.15;6.97;;;8.00;80.20;;;;;;5113245;28;20092;-70
2022/05/01 05:13:22;;;;;;;14.57;7.45;;;8.00;80.10;;;;;;5112568;28;20043;-71
2022/05/01 05:15:49;;;;;;;17.73;8.15;;;8.00;80.40;;;;;;5111808;28;20111;-70
2022/05/01 05:18:15;;;;;;;18.35;8.88;;;8.00;80.60;;;;;;5110965;28;20789;-70
2022/05/01 05:20:42;;;;;;;13.85;7.95;;;8.10;80.90;;;;;;5110106;28;20012;-70
2022/05/01 05:23:08;;;;;;;13.07;6.97;;;8.00;80.90;;;;;;5110437;28;20040;-71
2022/05/01 05:25:33;;;;;;;13.88;7.75;;;8.00;81.00;;;;;;5108849;28;20037;-70
2022/05/01 05:27:59;;;;;;;13.27;7.35;;;8.00;81.30;;;;;;5106539;28;20047;-71
2022/05/01 05:30:24;;;;;;;15.32;7.97;;;8.10;81.50;;;;;;5105307;28;20685;-71
2022/05/01 05:32:50;;;;;;;14.88;7.82;;;8.10;81.80;;;;;;5107706;28;20459;-71
2022/05/01 05:35:16;;;;;;;11.18;6.90;;;8.10;82.20;;;;;;5107323;28;20080;-71
2022/05/01 05:37:41;;;;;;;10.27;6.25;;;8.20;82.70;;;;;;5110349;28;20074;-71
2022/05/01 05:40:08;;;;;;;14.02;6.57;;;8.20;82.90;;;;;;5102348;28;20024;-71
2022/05/01 05:42:34;;;;;;;10.57;6.22;;;8.20;83.10;;;;;;5106733;28;20344;-71
2022/05/01 05:45:00;;;;;;;10.15;6.05;;;8.30;83.30;;;;;;5104385;28;20058;-72
2022/05/01 05:47:26;;;;;;;12.70;6.28;;;8.30;83.50;;;;;;5110461;28;20457;-71
2022/05/01 05:49:51;;;;;;;11.85;5.40;;;8.30;83.70;;;;;;5109775;28;20123;-71
2022/05/01 05:52:17;;;;;;;10.23;5.93;;;8.30;83.20;;;;;;5107855;27;20031;-71
2022/05/01 05:54:43;;;;;;;10.60;5.20;;;8.30;83.20;;;;;;5107181;28;20043;-71
2022/05/01 05:57:09;;;;;;;8.18;4.30;;;8.40;83.30;;;;;;5109469;28;20040;-71
2022/05/01 05:59:34;;;;;;;7.10;5.13;;;8.30;83.20;;;;;;5104539;28;20043;-71
2022/05/01 06:02:00;;;;;;;8.00;5.20;;;8.30;83.40;;;;;;5103079;28;20045;-71
2022/05/01 06:04:26;;;;;;;8.10;4.80;;;8.30;83.70;;;;;;5107052;28;20387;-71
2022/05/01 06:06:52;;;;;;;7.53;4.22;;;8.40;83.70;;;;;;5107286;28;20031;-71
2022/05/01 06:09:18;;;;;;;9.82;5.07;;;8.40;83.70;;;;;;5109749;28;20036;-71
2022/05/01 06:11:43;;;;;;;9.93;6.22;;;8.40;83.80;;;;;;5109522;28;20600;-70
2022/05/01 06:14:09;;;;;;;6.80;3.83;;;8.40;84.20;;;;;;5104350;28;20042;-71
2022/05/01 06:16:35;;;;;;;8.50;4.75;;;8.40;84.20;;;;;;5109867;28;20027;-71
2022/05/01 06:19:00;;;;;;;11.02;4.57;;;8.50;84.40;;;;;;5109399;28;20031;-71
2022/05/01 06:21:26;;;;;;;12.07;6.68;;;8.50;84.60;;;;;;5108380;28;20027;-71
2022/05/01 06:23:52;;;;;;;8.73;4.47;;;8.50;85.20;;;;;;5109419;28;20040;-71
2022/05/01 06:26:18;;;;;;;9.80;5.90;;;8.50;85.40;;;;;;5107508;28;20055;-71
2022/05/01 06:28:44;;;;;;;11.23;6.90;;;8.60;86.10;;;;;;5108750;28;20024;-71
2022/05/01 06:31:09;;;;;;;11.40;5.90;;;8.60;87.00;;;;;;5102418;28;20051;-71
2022/05/01 06:33:36;;;;;;;11.55;7.13;;;8.70;87.40;;;;;;5097661;28;20040;-71
2022/05/01 06:36:02;;;;;;;11.70;6.47;;;8.80;87.60;;;;;;5097783;28;20417;-70
2022/05/01 06:38:29;;;;;;;15.80;7.55;;;8.80;88.40;;;;;;5099876;28;20036;-70
2022/05/01 06:40:55;;;;;;;16.38;7.25;;;8.80;88.90;;;;;;5097603;28;20027;-71
2022/05/01 06:43:27;;;;;;;13.32;6.25;;;8.90;89.30;;;;;;5098541;28;20035;-71
2022/05/01 06:45:53;;;;;;;9.88;6.30;;;9.00;89.20;;;;;;5097266;28;20024;-71
2022/05/01 06:48:18;;;;;;;12.60;7.35;;;9.00;89.10;;;;;;5098921;28;20111;-71
2022/05/01 06:50:44;;;;;;;7.97;4.80;;;9.10;89.50;;;;;;5098476;28;20483;-71
2022/05/01 06:53:10;;;;;;;12.00;5.93;;;9.10;89.40;;;;;;5097486;28;20612;-71
2022/05/01 06:55:35;;;;;;;9.77;5.28;;;9.20;88.20;;;;;;5101180;28;20040;-71
2022/05/01 06:58:01;;;;;;;12.55;6.00;;;9.20;87.90;;;;;;5112557;28;20440;-71
2022/05/01 07:00:27;;;;;;;13.68;7.80;;;9.20;88.00;;;;;;5111796;28;20120;-71
2022/05/01 07:02:54;;;;;;;15.57;6.88;;;9.20;90.00;;;;;;5109698;28;20073;-73
2022/05/01 07:05:22;;;;;;;11.23;6.65;;;9.30;89.20;;;;;;5112533;28;20035;-71
2022/05/01 07:07:50;;;;;;;11.50;7.68;;;9.30;90.00;;;;;;5112008;28;20077;-69
2022/05/01 07:10:18;;;;;;;9.95;5.95;;;9.40;90.40;;;;;;5112419;28;20099;-70
2022/05/01 07:12:43;;;;;;;10.18;5.30;;;9.50;90.30;;;;;;5111782;28;20543;-70
2022/05/01 07:15:10;;;;;;;10.77;6.00;;;9.50;89.80;;;;;;5111603;28;20074;-68
2022/05/01 07:17:35;;;;;;;12.57;6.60;;;9.50;90.10;;;;;;5112510;28;20466;-68
2022/05/01 07:20:02;;;;;;;13.00;6.43;;;9.60;90.60;;;;;;5111066;28;20020;-68
2022/05/01 07:22:28;;;;;;;20.48;7.20;;;9.70;90.70;;;;;;5111589;28;20149;-68
2022/05/01 07:24:54;;;;;;;8.48;4.78;;;9.80;90.70;;;;;;5094577;28;20032;-67
2022/05/01 07:27:20;;;;;;;5.78;4.35;;;9.90;90.60;;;;;;5106275;28;20390;-68
2022/05/01 07:29:46;;;;;;;8.90;5.00;;;10.00;90.40;;;;;;5098475;28;20067;-67
2022/05/01 07:32:11;;;;;;;8.10;4.40;;;10.10;90.50;;;;;;5095601;28;20167;-68
2022/05/01 07:34:37;;;;;;;13.50;4.70;;;10.20;90.50;;;;;;5102402;28;20444;-68
2022/05/01 07:37:04;;;;;;;7.60;4.35;;;10.30;90.40;;;;;;5102794;28;20464;-67
2022/05/01 07:39:30;;;;;;;11.75;5.00;;;10.40;90.00;;;;;;5106288;28;20058;-69
2022/05/01 07:41:56;;;;;;;7.38;4.43;;;10.40;90.10;;;;;;5110056;28;20543;-68
2022/05/01 07:44:22;;;;;;;10.43;5.30;;;10.60;90.20;;;;;;5107145;28;20122;-68
2022/05/01 07:46:48;;;;;;;11.25;3.80;;;10.60;90.10;;;;;;5111089;28;20024;-69
2022/05/01 07:49:13;;;;;;;7.85;4.50;;;10.70;90.00;;;;;;5108778;28;20040;-69
2022/05/01 07:51:40;;;;;;;9.82;4.68;;;10.80;90.00;;;;;;5113131;28;20031;-69
2022/05/01 07:54:06;;;;;;;8.50;4.30;;;10.90;89.60;;;;;;5100573;28;20114;-69
2022/05/01 07:56:33;;;;;;;6.32;4.07;;;10.90;89.00;;;;;;5108978;28;20024;-69
2022/05/01 07:58:59;;;;;;;9.35;4.80;;;10.90;88.90;;;;;;5107712;28;20051;-68
2022/05/01 08:01:25;;;;;;;13.43;4.20;;;11.00;88.80;;;;;;5102249;28;20026;-68
2022/05/01 08:04:37;;;;;;;7.00;3.50;;;11.10;88.60;;;;;;5103972;28;20093;-68
2022/05/01 08:06:38;;;;;;;9.38;4.40;;;11.20;88.10;;;;;;5098533;28;20063;-68
2022/05/01 08:09:04;;;;;;;3.33;2.40;;;11.30;88.20;;;;;;5111013;28;20124;-69
2022/05/01 08:11:30;;;;;;;9.50;2.65;;;11.30;87.70;;;;;;5109446;28;20657;-67
2022/05/01 08:13:56;;;;;;;10.07;3.67;;;11.50;87.50;;;;;;5105061;28;20019;-68
2022/05/01 08:16:22;;;;;;;3.15;2.20;;;11.50;87.00;;;;;;5098948;28;20375;-68
2022/05/01 08:21:33;;;;;;;5.90;3.17;;;11.70;86.00;;;;;;5106973;28;20073;-68
2022/05/01 08:23:59;;;;;;;7.10;2.83;;;11.80;85.70;;;;;;5107357;28;20056;-68
2022/05/01 08:26:25;;;;;;;7.82;2.75;;;11.80;85.50;;;;;;5103806;28;20426;-68
2022/05/01 08:28:54;;;;;;;9.02;3.42;;;11.90;85.30;;;;;;5100256;28;20044;-68
2022/05/01 08:31:21;;;;;;;5.30;3.05;;;12.00;85.30;;;;;;5097024;28;20093;-68
2022/05/01 08:33:47;;;;;;;8.20;2.78;;;12.00;85.00;;;;;;5097282;28;20078;-69
2022/05/01 08:36:13;;;;;;;5.68;2.90;;;12.10;84.80;;;;;;5099759;28;20044;-68
2022/05/01 08:38:39;;;;;;;5.85;2.83;;;12.20;84.20;;;;;;5113224;28;20063;-68
2022/05/01 08:41:07;;;;;;;8.93;2.78;;;12.20;84.20;;;;;;5106920;28;20082;-68
2022/05/01 08:43:34;;;;;;;6.57;2.83;;;12.30;84.00;;;;;;5101667;28;20067;-68
2022/05/01 08:46:18;;;;;;;8.88;3.20;;;12.30;83.80;;;;;;5095153;28;20042;-68
2022/05/01 08:48:50;;;;;;;6.63;2.85;;;12.40;83.70;;;;;;5097980;28;20027;-74
2022/05/01 08:51:18;;;;;;;6.50;2.50;;;12.50;83.50;;;;;;5098041;28;20036;-72
2022/05/01 08:53:44;;;;;;;6.78;2.58;;;12.60;82.90;;;;;;5096585;28;20047;-72
2022/05/01 08:56:11;;;;;;;5.82;2.83;;;12.60;82.60;;;;;;5105149;28;20032;-69
2022/05/01 08:58:40;;;;;;;4.53;2.55;;;12.70;82.20;;;;;;5109597;28;20044;-68
2022/05/01 09:01:09;;;;;;;3.80;2.53;;;12.70;82.20;;;;;;5109722;28;20661;-71
2022/05/01 09:03:36;;;;;;;4.65;2.60;;;12.80;81.70;;;;;;5109993;28;20478;-71
2022/05/01 09:06:02;;;;;;;11.77;5.30;;;12.90;81.50;;;;;;5109518;28;20028;-73
2022/05/01 09:08:29;;;;;;;3.85;2.80;;;13.00;81.20;;;;;;5105264;28;20035;-72
2022/05/01 09:10:55;;;;;;;5.82;3.10;;;13.00;81.00;;;;;;5100825;28;20028;-79
2022/05/01 09:13:25;;;;;;;7.43;3.25;;;13.10;80.90;;;;;;5112231;28;20036;-76
2022/05/01 09:15:51;;;;;;;5.47;3.10;;;13.20;80.50;;;;;;5106841;28;20047;-75
2022/05/01 09:18:18;;;;;;;5.55;2.90;;;13.30;80.40;;;;;;5112481;28;20020;-77
2022/05/01 09:21:08;;;;;;;3.42;2.22;;;13.30;79.90;;;;;;5102645;28;20031;-76
2022/05/01 09:24:05;;;;;;;6.13;3.08;;;13.40;79.80;;;;;;5103313;28;20047;-76
2022/05/01 09:26:37;;;;;;;5.68;2.85;;;13.40;79.80;;;;;;5109382;28;20428;-78
2022/05/01 09:29:20;;;;;;;4.75;2.70;;;13.40;78.80;;;;;;5111362;28;20044;-71
2022/05/01 09:31:50;;;;;;;7.63;3.03;;;13.50;78.60;;;;;;5111638;28;20031;-71
2022/05/01 09:34:21;;;;;;;5.03;3.03;;;13.60;78.50;;;;;;5096085;28;20043;-71
2022/05/01 09:36:47;;;;;;;4.65;2.75;;;13.60;78.20;;;;;;5090577;28;20109;-72
2022/05/01 09:39:21;;;;;;;6.53;3.60;;;13.60;78.20;;;;;;5105798;28;20036;-73
2022/05/01 09:41:51;;;;;;;4.85;3.03;;;13.70;77.70;;;;;;5087157;28;20116;-76
2022/05/01 09:44:19;;;;;;;6.82;2.90;;;13.70;77.40;;;;;;5103990;28;20058;-77
2022/05/01 09:46:47;;;;;;;8.57;2.72;;;13.80;77.40;;;;;;5103356;28;20082;-80
2022/05/01 09:49:17;;;;;;;4.90;2.70;;;13.80;76.90;;;;;;5111519;28;20023;-71
2022/05/01 09:51:54;;;;;;;4.97;2.70;;;13.90;76.40;;;;;;5111315;28;20483;-72
2022/05/01 09:54:25;;;;;;;5.32;2.67;;;13.90;76.30;;;;;;5110929;28;20043;-71
2022/05/01 09:56:58;;;;;;;10.70;2.95;;;13.90;75.50;;;;;;5091975;28;20135;-72
2022/05/01 09:59:25;;;;;;;;;;;14.00;76.30;;;;;;5092755;28;20055;-72
2022/05/01 10:02:09;;;;;;;4.53;2.67;;;13.90;76.80;;;;;;5103196;28;20701;-71
2022/05/01 10:04:37;;;;;;;5.45;2.40;;;13.90;76.50;;;;;;5108599;28;20704;-71
2022/05/01 10:07:04;;;;;;;7.18;2.53;;;13.90;76.30;;;;;;5098308;28;20031;-76
2022/05/01 10:09:32;;;;;;;4.03;2.58;;;13.90;76.40;;;;;;5110894;28;20034;-78
2022/05/01 10:11:59;;;;;;;4.97;2.85;;;13.90;76.30;;;;;;5111558;28;20046;-73
2022/05/01 10:14:29;;;;;;;6.82;2.70;;;14.00;75.80;;;;;;5111895;28;20035;-71
2022/05/01 10:16:56;;;;;;;4.13;2.40;;;14.00;76.10;;;;;;5112615;28;20103;-78
2022/05/01 10:19:26;;;;;;;2.97;1.88;;;14.00;77.80;;;;;;5095687;27;20044;-76
2022/05/01 10:21:57;;;;;;;3.40;2.13;;;14.00;78.60;;;;;;5099344;28;20039;-72
2022/05/01 10:24:24;;;;;;;5.57;2.55;;;13.90;79.10;;;;;;5109137;28;20043;-71
2022/05/01 10:27:04;;;;;;;5.50;2.60;;;13.90;79.50;;;;;;5098749;28;20383;-70
2022/05/01 10:29:35;;;;;;;5.38;3.20;;;13.90;79.50;;;;;;5091021;28;20043;-70
2022/05/01 10:32:39;;;;;;;5.70;3.10;;;13.90;78.50;;;;;;5106646;28;20023;-70
2022/05/01 10:35:19;;;;;;;5.00;3.13;;;14.00;78.00;;;;;;5111743;28;20099;-71
2022/05/01 10:38:17;;;;;;;4.63;2.90;;;14.00;79.50;;;;;;5111160;28;20032;-70
2022/05/01 10:40:49;;;;;;;5.35;3.00;;;14.10;78.30;;;;;;5094926;28;20100;-70
2022/05/01 10:43:28;;;;;;;9.88;2.33;;;14.10;78.10;;;;;;5111170;28;20137;-71
2022/05/01 10:46:05;;;;;;;6.63;2.75;;;14.10;79.10;;;;;;5111304;28;20028;-70
2022/05/01 10:48:35;;;;;;;4.75;2.70;;;14.10;80.10;;;;;;5104198;28;20028;-70
2022/05/01 10:51:38;;;;;;;9.45;2.72;;;14.10;81.10;;;;;;5092785;28;20028;-72
2022/05/01 10:54:15;;;;;;;5.72;3.33;;;14.20;80.50;;;;;;5090985;28;20565;-73
2022/05/01 10:56:48;;;;;;;4.22;2.55;;;14.20;80.30;;;;;;5104427;28;20024;-75
2022/05/01 10:59:29;;;;;;;6.72;3.13;;;14.30;80.10;;;;;;5089937;28;20056;-75
2022/05/01 11:02:05;;;;;;;7.82;3.28;;;14.40;80.50;;;;;;5096953;28;20028;-74
2022/05/01 11:04:41;;;;;;;5.88;2.33;;;14.40;79.40;;;;;;5101566;28;20059;-75
2022/05/01 11:07:14;;;;;;;6.13;2.92;;;14.50;79.00;;;;;;5092338;28;20521;-75
2022/05/01 11:09:42;;;;;;;4.88;2.90;;;14.60;79.00;;;;;;5097842;28;20483;-75
2022/05/01 11:12:09;;;;;;;6.57;2.90;;;14.60;78.70;;;;;;5107876;28;20114;-76
2022/05/01 11:14:41;;;;;;;5.25;2.92;;;14.70;79.00;;;;;;5101912;28;20032;-76
2022/05/01 11:17:12;;;;;;;5.75;3.13;;;14.70;78.70;;;;;;5094242;28;20065;-75
2022/05/01 11:19:45;;;;;;;5.45;2.85;;;14.80;78.70;;;;;;5100472;28;20035;-72
2022/05/01 11:22:14;;;;;;;5.32;3.17;;;14.80;78.20;;;;;;5101624;28;20036;-74
2022/05/01 11:24:45;;;;;;;5.78;3.05;;;14.90;78.60;;;;;;5095354;28;20040;-73
2022/05/01 11:27:11;;;;;;;7.40;3.22;;;14.90;78.60;;;;;;5095806;28;20067;-74
2022/05/01 11:29:56;;;;;;;5.45;2.92;;;14.90;77.90;;;;;;5110259;28;20059;-73
2022/05/01 11:32:23;;;;;;;5.18;3.13;;;15.00;78.60;;;;;;5109902;28;20031;-73
2022/05/01 11:34:51;;;;;;;5.00;3.25;;;15.00;78.00;;;;;;5109532;28;20031;-73
2022/05/01 11:37:18;;;;;;;8.25;3.97;;;15.00;78.40;;;;;;5104089;28;20495;-72
2022/05/01 11:39:49;;;;;;;11.18;3.83;;;15.00;78.10;;;;;;5089831;28;20032;-73
2022/05/01 11:42:24;;;;;;;7.03;3.28;;;15.10;78.00;;;;;;5093440;28;20031;-73
2022/05/01 11:44:54;;;;;;;10.25;3.58;;;15.10;78.10;;;;;;5101363;28;20031;-72
2022/05/01 11:47:24;;;;;;;6.25;3.17;;;15.10;78.10;;;;;;5099601;28;20028;-75
2022/05/01 11:49:50;;;;;;;5.38;3.22;;;15.20;77.60;;;;;;5090776;27;20040;-70
2022/05/01 11:52:18;;;;;;;6.38;3.45;;;15.20;77.60;;;;;;5099262;28;20092;-71
2022/05/01 11:54:55;;;;;;;4.85;3.33;;;15.30;77.40;;;;;;5093389;28;20028;-70
2022/05/01 12:03:07;;;;;;;6.90;2.80;;;15.30;77.60;;;;;;5102334;28;20050;-75
2022/05/01 12:05:43;;;;;;;5.85;3.17;;;15.30;77.50;;;;;;5099557;28;20027;-75
2022/05/01 12:08:09;;;;;;;6.57;2.90;;;15.40;77.40;;;;;;5112591;28;20051;-75
2022/05/01 12:10:43;;;;;;;4.32;2.63;;;15.40;77.30;;;;;;5112373;28;20070;-75
2022/05/01 12:13:30;;;;;;;5.88;2.30;;;15.50;76.60;;;;;;5112925;28;20440;-76
2022/05/01 12:15:59;;;;;;;4.22;2.38;;;15.50;76.60;;;;;;5101646;28;20034;-71
2022/05/01 12:18:25;;;;;;;4.88;2.72;;;15.50;76.50;;;;;;5097164;28;20422;-69
2022/05/01 12:20:51;;;;;;;5.25;2.60;;;15.50;76.00;;;;;;5091495;28;20036;-69
2022/05/01 12:23:22;;;;;;;3.25;2.33;;;15.50;76.40;;;;;;5093281;28;20093;-69
2022/05/01 12:25:50;;;;;;;2.78;2.33;;;15.60;76.60;;;;;;5094198;28;20028;-69
2022/05/01 12:28:18;;;;;;;4.53;2.55;;;15.70;76.70;;;;;;5093406;28;20032;-70
2022/05/01 12:30:48;;;;;;;5.65;2.50;;;15.70;76.40;;;;;;5092094;28;20035;-69
2022/05/01 12:33:27;;;;;;;6.45;2.70;;;15.70;75.90;;;;;;5095969;28;20056;-70
2022/05/01 12:36:00;;;;;;;4.90;2.60;;;15.70;75.60;;;;;;5101407;28;20032;-70
2022/05/01 12:38:28;;;;;;;;;;;15.80;74.90;;;;;;5093474;28;20491;-71
2022/05/01 12:43:53;;;;;;;4.95;2.67;;;15.80;75.10;;;;;;5092301;28;20161;-74
2022/05/01 12:46:27;;;;;;;4.85;2.85;;;15.80;76.30;;;;;;5087044;28;20046;-74
2022/05/01 12:48:53;;;;;;;5.40;2.95;;;15.90;75.80;;;;;;5094291;28;20064;-77
2022/05/01 12:51:20;;;;;;;3.22;2.40;;;15.90;76.60;;;;;;5093073;28;20023;-74
2022/05/01 12:53:46;;;;;;;4.63;2.70;;;15.90;76.80;;;;;;5095042;28;20036;-73
2022/05/01 12:56:17;;;;;;;4.88;2.95;;;15.90;76.30;;;;;;5091239;28;20063;-74
2022/05/01 12:58:43;;;;;;;5.72;3.00;;;15.90;75.70;;;;;;5093471;28;20052;-73
2022/05/01 13:01:24;;;;;;;5.22;2.58;;;16.00;75.70;;;;;;5087298;28;20042;-74
2022/05/01 13:03:56;;;;;;;8.27;2.83;;;16.00;75.70;;;;;;5092906;28;20122;-74
2022/05/01 13:06:23;;;;;;;7.10;2.78;;;16.00;75.80;;;;;;5095048;28;20028;-74
2022/05/01 13:09:07;;;;;;;4.00;2.90;;;16.10;75.60;;;;;;5091672;28;20493;-73
2022/05/01 13:11:35;;;;;;;4.03;2.80;;;16.10;75.30;;;;;;5087473;28;20027;-74
2022/05/01 13:14:00;;;;;;;4.82;2.42;;;16.10;75.20;;;;;;5090404;28;20455;-72
2022/05/01 13:16:32;;;;;;;5.60;2.80;;;16.20;74.80;;;;;;5090801;28;20082;-73
2022/05/01 13:19:06;;;;;;;5.45;2.65;;;16.20;74.90;;;;;;5086208;28;20147;-69
2022/05/01 13:21:33;;;;;;;5.03;2.55;;;16.30;74.30;;;;;;5096037;28;20039;-70